• Join FlightAware (Why Join?)
  • Login
  • US Flag 
 
01:06AM EST


 

Airport Tracker/Info


-or-


 

Live Flight TrackerFlight Track Log ✈ N977GA ✈ 07-Oct-2013 ✈ EGUN / MHZ - KHEF

Flight Track Log - Related Links

Times and Time Zones

All times are in EDT time to prevent confusion due to time zone crossing. See the N977GA flight status page for this flight to view local times or setup timezone preferences in your user account.

Time Position Orientation Groundspeed Altitude Reporting Facility
EDT Latitude Longitude Course Direction KTS MPH feet Rate Location/Type
05:59AM 52.3678 0.4416 280° West 192 221 1,400  Level FlightAware UK
05:59AM 52.3706 0.4165 280° West 202 232 2,200 2,700 Climbing FlightAware UK
06:00AM 52.3753 0.3802 282° West 216 249 3,300 2,100 Climbing FlightAware UK
06:00AM 52.3857 0.3293 288° West 256 295 4,100 1,500 Climbing FlightAware UK
06:00AM 52.3903 0.3198 309° West 264 304 4,200 2,640 Climbing FlightAware UK
06:00AM 52.4033 0.3077 331° Northwest 272 313 4,900 3,540 Climbing FlightAware UK
06:01AM 52.4512 0.3329 18° North 282 325 7,400 3,180 Climbing FlightAware UK
06:02AM 52.4928 0.3932 41° Northeast 288 331 9,400 2,580 Climbing FlightAware UK
06:02AM 52.5281 0.4305 33° Northeast 302 348 10,500 1,740 Climbing FlightAware UK
06:03AM 52.5868 0.4908 32° Northeast 356 410 11,500 1,860 Climbing FlightAware UK
06:03AM 52.6154 0.5103 22° Northeast 362 417 12,400 3,000 Climbing FlightAware UK
06:04AM 52.6460 0.5195 10° North 366 421 13,300 2,700 Climbing FlightAware UK
06:04AM 52.6875 0.5152 356° North 374 430 14,300 2,460 Climbing FlightAware UK
06:05AM 52.7501 0.4944 349° North 382 440 15,800 2,460 Climbing FlightAware UK
06:05AM 52.8141 0.4713 348° North 390 449 17,300 2,280 Climbing FlightAware UK
06:06AM 52.8792 0.4478 348° North 398 458 18,600 2,220 Climbing FlightAware UK
06:06AM 52.9351 0.4292 349° North 406 467 19,800 2,400 Climbing FlightAware UK
06:07AM 52.9880 0.3946 339° North 410 472 21,000 2,100 Climbing FlightAware UK
06:08AM 53.1304 0.2297 325° Northwest 432 497 24,000 1,200 Climbing FlightAware UK
06:09AM 53.2156 0.1237 323° Northwest 428 493 24,000  Level FlightAware UK
06:10AM 53.2601 0.0597 319° Northwest 432 497 24,000 900 Level FlightAware UK
06:10AM 53.2976 -0.0143 310° West 438 504 24,900 1,740 Climbing FlightAware UK
06:11AM 53.3636 -0.2242 298° West 450 518 27,000 1,680 Climbing FlightAware UK
06:12AM 53.3951 -0.3334 296° West 456 525 28,000 1,500 Climbing FlightAware UK
06:13AM 53.4380 -0.4842 296° West 464 534 29,100 1,500 Climbing FlightAware UK
06:13AM 53.4713 -0.6215 292° West 474 545 30,300 1,800 Climbing FlightAware UK
06:14AM 53.5083 -0.8011 289° West 474 545 32,000 1,500 Climbing FlightAware UK
06:15AM 53.5445 -0.9787 289° West 470 541 33,000 480 Climbing FlightAware UK
06:16AM 53.5841 -1.1748 289° West 466 536 33,000 360 Level FlightAware UK
06:17AM 53.6125 -1.3124 289° West 468 539 33,700 1,500 Climbing FlightAware UK
06:18AM 53.6400 -1.4503 289° West 466 536 35,100 2,160 Climbing FlightAware UK
06:18AM 53.6596 -1.5457 289° West 462 532 36,300 1,800 Climbing FlightAware UK
06:19AM 53.6825 -1.6588 289° West 460 529 37,100 1,140 Climbing FlightAware UK
06:19AM 53.7018 -1.7540 289° West 462 532 37,600 1,080 Climbing FlightAware UK
06:20AM 53.7217 -1.8495 289° West 458 527 38,200 1,200 Climbing FlightAware UK
06:20AM 53.7392 -1.9659 284° West 460 529 38,900 1,080 Climbing FlightAware UK
06:21AM 53.7637 -2.1605 282° West 458 527 40,000 960 Climbing FlightAware UK
06:22AM 53.7783 -2.2780 282° West 462 532 40,500 1,080 Climbing FlightAware UK
06:23AM 53.8019 -2.4681 282° West 444 511 41,800 1,080 Climbing FlightAware UK
06:23AM 53.8133 -2.5621 282° West 444 511 42,200 600 Climbing FlightAware UK
06:24AM 53.8270 -2.6744 282° West 448 516 42,500 360 Climbing FlightAware UK
06:25AM 53.8404 -2.7863 282° West 450 518 42,700 240 Climbing FlightAware UK
06:25AM 53.8584 -2.9370 281° West 458 527 42,900 180 Climbing FlightAware UK
06:26AM 53.8698 -3.0330 281° West 460 529 43,000 60 Climbing FlightAware UK
06:26AM 53.8810 -3.1295 281° West 464 534 43,000  Level FlightAware UK
06:27AM 53.8923 -3.2269 281° West 472 543 43,000  Level FlightAware UK
06:28AM 53.9106 -3.3852 281° West 480 552 43,000  Level FlightAware UK
06:28AM 53.9241 -3.5043 281° West 478 550 43,000  Level FlightAware UK
06:29AM 53.9355 -3.6035 281° West 482 555 43,000  Level FlightAware UK
06:29AM 53.9465 -3.7027 281° West 480 552 43,000 60 Level FlightAware UK
06:30AM 53.9650 -3.8182 285° West 478 550 43,100  Climbing FlightAware UK
06:31AM 54.0231 -3.9953 299° West 476 548 43,000 -60 Descending FlightAware UK
06:32AM 54.0680 -4.1158 302° West 476 548 43,000  Level FlightAware UK
06:32AM 54.0999 -4.2023 302° West 476 548 43,000  Level FlightAware UK
06:33AM 54.1324 -4.3320 293° West 472 543 43,000  Level FlightAware UK
06:33AM 54.1528 -4.4480 287° West 476 548 43,000  Level FlightAware UK
06:34AM 54.1733 -4.5642 287° West 476 548 43,000  Level FlightAware UK
06:34AM 54.1904 -4.6614 287° West 474 545 43,000  Level FlightAware UK
06:35AM 54.2176 -4.8173 287° West 478 550 43,000  Level FlightAware UK
06:36AM 54.2343 -4.9151 286° West 478 550 43,000  Level FlightAware UK
06:36AM 54.2511 -5.0130 286° West 480 552 43,000  Level FlightAware UK
06:37AM 54.2678 -5.1110 286° West 480 552 43,000  Level FlightAware UK
06:37AM 54.2877 -5.2278 286° West 478 550 43,000  Level FlightAware UK
06:38AM 54.3042 -5.3257 286° West 478 550 43,000  Level FlightAware UK
06:39AM 54.3400 -5.5407 286° West 478 550 43,000  Level FlightAware UK
06:40AM 54.3594 -5.6583 286° West 476 548 43,000  Level FlightAware UK
06:40AM 54.3755 -5.7567 286° West 476 548 43,000  Level FlightAware UK
06:41AM 54.3916 -5.8552 286° West 474 545 43,000  Level FlightAware UK
06:41AM 54.4076 -5.9541 286° West 474 545 43,000  Level FlightAware UK
06:42AM 54.4236 -6.0533 286° West 476 548 43,000  Level FlightAware UK
06:42AM 54.4459 -6.1918 286° West 474 545 43,000  Level FlightAware UK
06:43AM 54.4649 -6.3118 285° West 476 548 43,000  Level FlightAware UK
06:43AM 54.4809 -6.4122 285° West 472 543 43,000  Level FlightAware UK
06:44AM 54.4969 -6.5134 285° West 474 545 43,000  Level FlightAware UK
06:44AM 54.5127 -6.6145 285° West 474 545 43,000  Level FlightAware UK
06:45AM 54.5286 -6.7156 285° West 474 545 43,000  Level FlightAware UK
06:45AM 54.5472 -6.8372 285° West 480 552 43,000  Level FlightAware UK
06:46AM 54.5628 -6.9386 285° West 476 548 43,000  Level FlightAware UK
06:46AM 54.5781 -7.0402 285° West 480 552 43,000  Level FlightAware UK
06:47AM 54.5936 -7.1420 285° West 482 555 43,000  Level FlightAware UK
06:47AM 54.6090 -7.2436 285° West 482 555 43,000  Level FlightAware UK
06:48AM 54.6241 -7.3453 284° West 476 548 43,000  Level FlightAware UK
06:49AM 54.6509 -7.5274 284° West 478 550 43,000  Level FlightAware UK
06:49AM 54.6659 -7.6291 284° West 478 550 43,000  Level FlightAware UK
06:50AM 54.6808 -7.7311 284° West 478 550 43,000  Level FlightAware UK
06:50AM 54.6957 -7.8332 284° West 478 550 43,000  Level FlightAware UK
06:51AM 54.7103 -7.9357 284° West 474 545 43,000  Level FlightAware UK
06:51AM 54.7250 -8.0382 284° West 476 548 43,000  Level FlightAware UK
06:52AM 54.7396 -8.1410 284° West 478 550 43,000  Level FlightAware UK
06:52AM 54.7541 -8.2441 284° West 476 548 43,000  Level FlightAware UK
06:53AM 54.7686 -8.3477 284° West 478 550 43,000  Level FlightAware UK
06:53AM 54.7831 -8.4517 284° West 482 555 43,000  Level FlightAware UK
06:54AM 54.7975 -8.5559 283° West 482 555 43,000  Level FlightAware UK
06:54AM 54.8144 -8.6802 283° West 482 555 43,000  Level FlightAware UK
06:55AM 54.8286 -8.7845 283° West 482 555 43,000  Level FlightAware UK
06:55AM 54.8427 -8.8887 283° West 482 555 43,000  Level FlightAware UK
06:56AM 54.8569 -8.9932 283° West 484 557 43,000  Level FlightAware UK
06:58AM 54.8892 -9.3199 280° West  Level Estimated
07:05AM 55.0227 -10.7858 280° West  Level Estimated
07:06AM 55.0404 -10.9959 278° West  Level Estimated
07:07AM 55.0576 -11.2063 278° West  Level Estimated
07:08AM 55.0746 -11.4168 278° West  Level Estimated
07:09AM 55.0911 -11.6276 278° West  Level Estimated
07:10AM 55.1073 -11.8385 278° West  Level Estimated
07:11AM 55.1231 -12.0495 278° West  Level Estimated
07:12AM 55.1385 -12.2607 277° West  Level Estimated
07:13AM 55.1536 -12.4721 277° West  Level Estimated
07:14AM 55.1684 -12.6837 277° West  Level Estimated
07:15AM 55.1827 -12.8954 277° West  Level Estimated
07:16AM 55.1967 -13.1072 277° West  Level Estimated
07:17AM 55.2103 -13.3192 277° West  Level Estimated
07:18AM 55.2236 -13.5314 276° West  Level Estimated
07:19AM 55.2365 -13.7437 276° West  Level Estimated
07:20AM 55.2490 -13.9561 276° West  Level Estimated
07:21AM 55.2611 -14.1686 276° West  Level Estimated
07:22AM 55.2729 -14.3813 276° West  Level Estimated
07:23AM 55.2843 -14.5941 275° West  Level Estimated
07:24AM 55.2953 -14.8070 275° West  Level Estimated
07:25AM 55.3060 -15.0201 275° West  Level Estimated
07:26AM 55.3163 -15.2332 275° West  Level Estimated
07:27AM 55.3262 -15.4465 275° West  Level Estimated
07:28AM 55.3358 -15.6598 275° West  Level Estimated
07:29AM 55.3450 -15.8733 274° West  Level Estimated
07:30AM 55.3538 -16.0868 274° West  Level Estimated
07:31AM 55.3622 -16.3005 274° West  Level Estimated
07:32AM 55.3703 -16.5142 274° West  Level Estimated
07:33AM 55.3779 -16.7281 274° West  Level Estimated
07:34AM 55.3853 -16.9420 274° West  Level Estimated
07:35AM 55.3922 -17.1560 273° West  Level Estimated
07:36AM 55.3988 -17.3700 273° West  Level Estimated
07:37AM 55.4050 -17.5842 273° West  Level Estimated
07:38AM 55.4108 -17.7983 273° West  Level Estimated
07:39AM 55.4162 -18.0126 273° West  Level Estimated
07:40AM 55.4213 -18.2269 272° West  Level Estimated
07:41AM 55.4260 -18.4413 272° West  Level Estimated
07:42AM 55.4303 -18.6557 272° West  Level Estimated
07:43AM 55.4343 -18.8702 272° West  Level Estimated
07:44AM 55.4379 -19.0847 272° West  Level Estimated
07:45AM 55.4411 -19.2992 272° West  Level Estimated
07:46AM 55.4439 -19.5138 271° West  Level Estimated
07:47AM 55.4463 -19.7284 271° West  Level Estimated
07:48AM 55.4484 -19.9430 271° West  Level Estimated
07:49AM 55.4501 -20.1576 271° West  Level Estimated
07:50AM 55.4514 -20.3723 271° West  Level Estimated
07:51AM 55.4524 -20.5870 271° West  Level Estimated
07:51AM 56.0000 -20.0000 274° West 446 513 43,000  Level ETMS Enhanced Traffic Management System
07:52AM 55.4529 -20.8016 270° West  Level Estimated
07:53AM 55.4531 -21.0163 270° West  Level Estimated
07:54AM 55.4529 -21.2310 270° West  Level Estimated
07:55AM 55.4524 -21.4457 270° West  Level Estimated
07:56AM 55.4515 -21.6604 270° West  Level Estimated
07:57AM 56.0747 -22.4411 272° West 446 513 43,000  Level FlightAware Transoceanic
07:58AM 56.0791 -22.6635 272° West 446 513 43,000  Level FlightAware Transoceanic
07:59AM 56.0831 -22.8859 272° West 446 513 43,000  Level FlightAware Transoceanic
08:00AM 56.0867 -23.1083 272° West 446 513 43,000  Level FlightAware Transoceanic
08:01AM 56.0899 -23.3307 271° West 446 513 43,000  Level FlightAware Transoceanic
08:02AM 56.0927 -23.5532 271° West 446 513 43,000  Level FlightAware Transoceanic
08:03AM 56.0951 -23.7758 271° West 446 513 43,000  Level FlightAware Transoceanic
08:04AM 56.0971 -23.9983 271° West 446 513 43,000  Level FlightAware Transoceanic
08:05AM 56.0987 -24.2209 271° West 446 513 43,000  Level FlightAware Transoceanic
08:06AM 56.0999 -24.4435 270° West 446 513 43,000  Level FlightAware Transoceanic
08:07AM 56.1007 -24.6661 270° West 446 513 43,000  Level FlightAware Transoceanic
08:08AM 56.1012 -24.8887 270° West 446 513 43,000  Level FlightAware Transoceanic
08:09AM 56.1012 -25.1113 270° West 446 513 43,000  Level FlightAware Transoceanic
08:10AM 56.1007 -25.3339 270° West 446 513 43,000  Level FlightAware Transoceanic
08:11AM 56.0999 -25.5565 270° West 446 513 43,000  Level FlightAware Transoceanic
08:12AM 56.0987 -25.7791 269° West 446 513 43,000  Level FlightAware Transoceanic
08:13AM 56.0971 -26.0017 269° West 446 513 43,000  Level FlightAware Transoceanic
08:14AM 56.0951 -26.2242 269° West 446 513 43,000  Level FlightAware Transoceanic
08:15AM 56.0927 -26.4468 269° West 446 513 43,000  Level FlightAware Transoceanic
08:16AM 56.0899 -26.6693 269° West 446 513 43,000  Level FlightAware Transoceanic
08:17AM 56.0867 -26.8917 268° West 446 513 43,000  Level FlightAware Transoceanic
08:18AM 56.0831 -27.1141 268° West 446 513 43,000  Level FlightAware Transoceanic
08:19AM 56.0791 -27.3365 268° West 446 513 43,000  Level FlightAware Transoceanic
08:20AM 56.0747 -27.5589 268° West 446 513 43,000  Level FlightAware Transoceanic
08:21AM 56.0699 -27.7811 268° West 446 513 43,000  Level FlightAware Transoceanic
08:22AM 56.0647 -28.0034 268° West 446 513 43,000  Level FlightAware Transoceanic
08:23AM 56.0591 -28.2255 267° West 446 513 43,000  Level FlightAware Transoceanic
08:24AM 56.0531 -28.4476 267° West 446 513 43,000  Level FlightAware Transoceanic
08:25AM 56.0467 -28.6696 267° West 446 513 43,000  Level FlightAware Transoceanic
08:26AM 56.0399 -28.8916 267° West 446 513 43,000  Level FlightAware Transoceanic
08:27AM 56.0327 -29.1134 267° West 446 513 43,000  Level FlightAware Transoceanic
08:28AM 56.0252 -29.3352 266° West 446 513 43,000  Level FlightAware Transoceanic
08:29AM 56.0172 -29.5569 266° West 446 513 43,000  Level FlightAware Transoceanic
08:30AM 56.0088 -29.7785 266° West 446 513 43,000  Level FlightAware Transoceanic
08:31AM 55.9908 -29.9938 262° West  Level Estimated
08:32AM 55.9724 -30.2089 261° West  Level Estimated
08:33AM 55.9537 -30.4238 261° West  Level Estimated
08:34AM 55.9346 -30.6385 261° West  Level Estimated
08:35AM 55.9151 -30.8530 261° West  Level Estimated
08:36AM 55.8952 -31.0673 261° West  Level Estimated
08:37AM 55.8750 -31.2814 261° West  Level Estimated
08:38AM 55.8544 -31.4952 260° West  Level Estimated
08:38AM 56.0000 -30.0000 264° West 440 506 43,000  Level ETMS Enhanced Traffic Management System
08:39AM 55.8334 -31.7088 260° West  Level Estimated
08:40AM 55.8121 -31.9222 260° West  Level Estimated
08:41AM 55.7904 -32.1353 260° West  Level Estimated
08:42AM 55.7683 -32.3482 260° West  Level Estimated
08:43AM 55.7459 -32.5608 259° West  Level Estimated
08:44AM 55.8055 -32.8141 262° West 440 506 43,000  Level FlightAware Transoceanic
08:45AM 55.7878 -33.0293 262° West 440 506 43,000  Level FlightAware Transoceanic
08:46AM 55.7699 -33.2444 261° West 440 506 43,000  Level FlightAware Transoceanic
08:47AM 55.7515 -33.4592 261° West 440 506 43,000  Level FlightAware Transoceanic
08:48AM 55.7328 -33.6738 261° West 440 506 43,000  Level FlightAware Transoceanic
08:49AM 55.7136 -33.8882 261° West 440 506 43,000  Level FlightAware Transoceanic
08:50AM 55.6942 -34.1024 261° West 440 506 43,000  Level FlightAware Transoceanic
08:51AM 55.6743 -34.3164 261° West 440 506 43,000  Level FlightAware Transoceanic
08:52AM 55.6541 -34.5302 260° West 440 506 43,000  Level FlightAware Transoceanic
08:53AM 55.6335 -34.7438 260° West 440 506 43,000  Level FlightAware Transoceanic
08:54AM 55.6125 -34.9571 260° West 440 506 43,000  Level FlightAware Transoceanic
08:55AM 55.5912 -35.1702 260° West 440 506 43,000  Level FlightAware Transoceanic
08:56AM 55.5695 -35.3830 260° West 440 506 43,000  Level FlightAware Transoceanic
08:57AM 55.5474 -35.5956 260° West 440 506 43,000  Level FlightAware Transoceanic
08:58AM 55.5249 -35.8080 259° West 440 506 43,000  Level FlightAware Transoceanic
08:59AM 55.5021 -36.0202 259° West 440 506 43,000  Level FlightAware Transoceanic
09:00AM 55.4789 -36.2321 259° West 440 506 43,000  Level FlightAware Transoceanic
09:01AM 55.4554 -36.4437 259° West 440 506 43,000  Level FlightAware Transoceanic
09:02AM 55.4315 -36.6551 259° West 440 506 43,000  Level FlightAware Transoceanic
09:03AM 55.4072 -36.8662 258° West 440 506 43,000  Level FlightAware Transoceanic
09:04AM 55.3826 -37.0771 258° West 440 506 43,000  Level FlightAware Transoceanic
09:05AM 55.3576 -37.2877 258° West 440 506 43,000  Level FlightAware Transoceanic
09:06AM 55.3322 -37.4980 258° West 440 506 43,000  Level FlightAware Transoceanic
09:07AM 55.3065 -37.7081 258° West 440 506 43,000  Level FlightAware Transoceanic
09:08AM 55.2804 -37.9179 258° West 440 506 43,000  Level FlightAware Transoceanic
09:09AM 55.2540 -38.1274 257° West 440 506 43,000  Level FlightAware Transoceanic
09:10AM 55.2272 -38.3366 257° West 440 506 43,000  Level FlightAware Transoceanic
09:11AM 55.2000 -38.5456 257° West 440 506 43,000  Level FlightAware Transoceanic
09:12AM 55.1725 -38.7542 257° West 440 506 43,000  Level FlightAware Transoceanic
09:13AM 55.1446 -38.9626 257° West 440 506 43,000  Level FlightAware Transoceanic
09:14AM 55.1164 -39.1707 257° West 440 506 43,000  Level FlightAware Transoceanic
09:15AM 55.0878 -39.3784 256° West 440 506 43,000  Level FlightAware Transoceanic
09:16AM 55.0589 -39.5859 256° West 440 506 43,000  Level FlightAware Transoceanic
09:17AM 55.0296 -39.7931 256° West 440 506 43,000  Level FlightAware Transoceanic
09:18AM 54.9929 -39.9997 253° West  Level Estimated
09:18AM 55.0000 -40.0000 240° Southwest 463 533 43,000  Level ETMS Enhanced Traffic Management System
09:19AM 54.9559 -40.2058 253° West  Level Estimated
09:20AM 54.9184 -40.4116 253° West  Level Estimated
09:21AM 54.8807 -40.6170 252° West  Level Estimated
09:22AM 54.8426 -40.8220 252° West  Level Estimated
09:23AM 54.8042 -41.0266 252° West  Level Estimated
09:24AM 54.5477 -41.3530 239° Southwest 463 533 43,000  Level FlightAware Transoceanic
09:25AM 54.4819 -41.5438 239° Southwest 463 533 43,000  Level FlightAware Transoceanic
09:26AM 54.4158 -41.7340 239° Southwest 463 533 43,000  Level FlightAware Transoceanic
09:27AM 54.3494 -41.9236 239° Southwest 463 533 43,000  Level FlightAware Transoceanic
09:28AM 54.2826 -42.1126 239° Southwest 463 533 43,000  Level FlightAware Transoceanic
09:29AM 54.2156 -42.3010 239° Southwest 463 533 43,000  Level FlightAware Transoceanic
09:30AM 54.1483 -42.4887 238° Southwest 463 533 43,000  Level FlightAware Transoceanic
09:31AM 54.0807 -42.6759 238° Southwest 463 533 43,000  Level FlightAware Transoceanic
09:32AM 54.0128 -42.8624 238° Southwest 463 533 43,000  Level FlightAware Transoceanic
09:33AM 53.9447 -43.0483 238° Southwest 463 533 43,000  Level FlightAware Transoceanic
09:34AM 53.8762 -43.2336 238° Southwest 463 533 43,000  Level FlightAware Transoceanic
09:35AM 53.8075 -43.4184 238° Southwest 463 533 43,000  Level FlightAware Transoceanic
09:36AM 53.7384 -43.6025 238° Southwest 463 533 43,000  Level FlightAware Transoceanic
09:37AM 53.6691 -43.7859 237° Southwest 463 533 43,000  Level FlightAware Transoceanic
09:38AM 53.5995 -43.9688 237° Southwest 463 533 43,000  Level FlightAware Transoceanic
09:39AM 53.5297 -44.1511 237° Southwest 463 533 43,000  Level FlightAware Transoceanic
09:40AM 53.4595 -44.3328 237° Southwest 463 533 43,000  Level FlightAware Transoceanic
09:41AM 53.3891 -44.5139 237° Southwest 463 533 43,000  Level FlightAware Transoceanic
09:42AM 53.3184 -44.6944 237° Southwest 463 533 43,000  Level FlightAware Transoceanic
09:43AM 53.2474 -44.8743 237° Southwest 463 533 43,000  Level FlightAware Transoceanic
09:44AM 53.1762 -45.0536 236° Southwest 463 533 43,000  Level FlightAware Transoceanic
09:45AM 53.1047 -45.2323 236° Southwest 463 533 43,000  Level FlightAware Transoceanic
09:46AM 53.0329 -45.4104 236° Southwest 463 533 43,000  Level FlightAware Transoceanic
09:47AM 52.9609 -45.5879 236° Southwest 463 533 43,000  Level FlightAware Transoceanic
09:48AM 52.8886 -45.7648 236° Southwest 463 533 43,000  Level FlightAware Transoceanic
09:49AM 52.8161 -45.9412 236° Southwest 463 533 43,000  Level FlightAware Transoceanic
09:50AM 52.7432 -46.1169 236° Southwest 463 533 43,000  Level FlightAware Transoceanic
09:51AM 52.6702 -46.2921 235° Southwest 463 533 43,000  Level FlightAware Transoceanic
09:52AM 52.5968 -46.4666 235° Southwest 463 533 43,000  Level FlightAware Transoceanic
09:53AM 52.5232 -46.6406 235° Southwest 463 533 43,000  Level FlightAware Transoceanic
09:54AM 52.4494 -46.8140 235° Southwest 463 533 43,000  Level FlightAware Transoceanic
09:55AM 52.3753 -46.9868 235° Southwest 463 533 43,000  Level FlightAware Transoceanic
09:56AM 52.3009 -47.1591 235° Southwest 463 533 43,000  Level FlightAware Transoceanic
09:57AM 52.2263 -47.3307 235° Southwest 463 533 43,000  Level FlightAware Transoceanic
09:58AM 52.1515 -47.5018 234° Southwest 463 533 43,000  Level FlightAware Transoceanic
09:59AM 52.0764 -47.6723 234° Southwest 463 533 43,000  Level FlightAware Transoceanic
10:00AM 52.0010 -47.8423 234° Southwest 463 533 43,000  Level FlightAware Transoceanic
10:01AM 51.9255 -48.0116 234° Southwest 463 533 43,000  Level FlightAware Transoceanic
10:02AM 51.8497 -48.1804 234° Southwest 463 533 43,000  Level FlightAware Transoceanic
10:03AM 51.7736 -48.3487 234° Southwest 463 533 43,000  Level FlightAware Transoceanic
10:04AM 51.6973 -48.5163 234° Southwest 463 533 43,000  Level FlightAware Transoceanic
10:05AM 51.6207 -48.6834 233° Southwest 463 533 43,000  Level FlightAware Transoceanic
10:06AM 51.5439 -48.8499 233° Southwest 463 533 43,000  Level FlightAware Transoceanic
10:07AM 51.4669 -49.0159 233° Southwest 463 533 43,000  Level FlightAware Transoceanic
10:08AM 51.3897 -49.1813 233° Southwest 463 533 43,000  Level FlightAware Transoceanic
10:09AM 51.3122 -49.3461 233° Southwest 463 533 43,000  Level FlightAware Transoceanic
10:10AM 51.2345 -49.5104 233° Southwest 463 533 43,000  Level FlightAware Transoceanic
10:11AM 51.1566 -49.6742 233° Southwest 463 533 43,000  Level FlightAware Transoceanic
10:12AM 51.0784 -49.8374 233° Southwest 463 533 43,000  Level FlightAware Transoceanic
10:13AM 51.0323 -50.0205 248° West  Level Estimated
10:13AM 51.0000 -50.0000 250° West 419 482 43,000  Level ETMS Enhanced Traffic Management System
10:13AM 51.0000 -50.0000 250° West 419 482 43,000  Level ETMS Enhanced Traffic Management System
10:14AM 50.9859 -50.2033 248° West  Level Estimated
10:15AM 50.9393 -50.3857 248° West  Level Estimated
10:15AM 50.8333 -50.6167 249° West 460 529 43,100  Level Gander Center
10:16AM 50.8924 -50.5677 248° West  Level Estimated
10:16AM 50.7833 -50.7833 245° Southwest 470 541 43,100  Level Gander Center
10:17AM 50.8457 -50.7513 248° West  Level FlightAware Approximate
10:17AM 50.7333 -51.0167 251° West 470 541 43,100  Level Gander Center
10:18AM 50.7987 -50.9346 248° West  Level FlightAware Approximate
10:18AM 50.6833 -51.1833 245° Southwest 480 552 43,100  Level Gander Center
10:19AM 50.6707 -51.3827 249° West 419 482 43,000  Descending FlightAware Transoceanic
10:19AM 50.6167 -51.3833 242° Southwest 480 552 43,100  Climbing Gander Center
10:20AM 50.6284 -51.5541 249° West 419 482 43,000  Descending FlightAware Transoceanic
10:20AM 50.5667 -51.5500 245° Southwest 470 541 43,100  Climbing Gander Center
10:21AM 50.5859 -51.7253 249° West 419 482 43,000  Descending FlightAware Transoceanic
10:21AM 50.5000 -51.7500 242° Southwest 460 529 43,100  Climbing Gander Center
10:22AM 50.4500 -51.9167 245° Southwest 460 529 43,100  Level Gander Center
10:23AM 50.3833 -52.0833 238° Southwest 470 541 43,100  Level Gander Center
10:24AM 50.3167 -52.2667 240° Southwest 460 529 43,100  Level Gander Center
10:25AM 50.2667 -52.4333 245° Southwest 470 541 43,100  Level Gander Center
10:26AM 50.2000 -52.6167 240° Southwest 470 541 43,100  Level Gander Center
10:27AM 50.1333 -52.7833 238° Southwest 470 541 43,100  Level Gander Center
10:28AM 50.0667 -52.9833 243° Southwest 470 541 43,100  Level Gander Center
10:29AM 50.0000 -53.1500 238° Southwest 480 552 43,100  Level Gander Center
10:30AM 49.9500 -53.3500 249° West 480 552 43,100  Level Gander Center
10:31AM 49.8667 -53.5167 232° Southwest 480 552 43,100  Level Gander Center
10:32AM 49.8167 -53.7000 247° West 480 552 43,100  Level Gander Center
10:33AM 49.7500 -53.8667 238° Southwest 480 552 43,100  Level Gander Center
10:34AM 49.6667 -54.0667 237° Southwest 470 541 43,100  Level Gander Center
10:35AM 49.6167 -54.2333 245° Southwest 470 541 43,100  Level Gander Center
10:36AM 49.5500 -54.4000 238° Southwest 470 541 43,100  Level Gander Center
10:37AM 49.4833 -54.5667 238° Southwest 460 529 43,100  Level Gander Center
10:38AM 49.4167 -54.7500 241° Southwest 470 541 43,100  Level Gander Center
10:39AM 49.3500 -54.9167 238° Southwest 470 541 43,100  Level Gander Center
10:40AM 49.2833 -55.1000 241° Southwest 470 541 43,100  Level Gander Center
10:41AM 49.2167 -55.2667 239° Southwest 470 541 43,100  Level Gander Center
10:42AM 49.1500 -55.4500 241° Southwest 470 541 43,100  Level Gander Center
10:43AM 49.1000 -55.6167 245° Southwest 460 529 43,100  Level Gander Center
10:44AM 49.0167 -55.7667 230° Southwest 460 529 43,100  Level Gander Center
10:45AM 48.9500 -55.9333 239° Southwest 460 529 43,100  Level Gander Center
10:46AM 48.9000 -56.1167 248° West 450 518 43,100  Level Gander Center
10:47AM 48.8167 -56.2833 233° Southwest 450 518 43,100  Level Gander Center
10:48AM 48.7667 -56.4333 243° Southwest 450 518 43,100  Level Gander Center
10:49AM 48.7000 -56.6000 239° Southwest 440 506 43,100  Level Gander Center
10:50AM 48.6167 -56.7500 230° Southwest 440 506 43,100  Level Gander Center
10:51AM 48.5667 -56.9167 246° West 440 506 43,100  Level Gander Center
10:52AM 48.5000 -57.0500 233° Southwest 440 506 43,100  Level Gander Center
10:53AM 48.4500 -57.2333 248° West 440 506 43,100  Level Gander Center
10:54AM 48.3833 -57.3833 236° Southwest 440 506 43,100  Level Gander Center
10:55AM 48.3000 -57.5333 230° Southwest 440 506 43,100  Level Gander Center
10:56AM 48.2333 -57.7000 239° Southwest 440 506 43,100  Level Gander Center
10:57AM 48.1833 -57.8500 243° Southwest 450 518 43,100  Level Gander Center
10:58AM 48.1000 -58.0000 230° Southwest 460 529 43,100  Level Gander Center
10:59AM 48.0333 -58.1500 236° Southwest 460 529 43,100  Level Gander Center
11:00AM 47.9667 -58.3333 242° Southwest 460 529 43,100  Level Gander Center
11:01AM 47.9000 -58.4833 236° Southwest 460 529 43,100  Level Gander Center
11:02AM 47.8167 -58.6500 233° Southwest 460 529 43,100  Level Gander Center
11:03AM 47.7500 -58.8167 239° Southwest 460 529 43,100  Level Gander Center
11:04AM 47.6833 -58.9500 233° Southwest 450 518 43,100  Level Gander Center
11:05AM 47.6333 -59.1333 248° West 440 506 43,100  Level Gander Center
11:06AM 47.5500 -59.2833 231° Southwest 450 518 43,100  Level Gander Center
11:07AM 47.4833 -59.4333 237° Southwest 450 518 43,100  Level Gander Center
11:08AM 47.4167 -59.5833 237° Southwest 460 529 43,100  Level Gander Center
11:09AM 47.3333 -59.7500 234° Southwest 460 529 43,100  Level Gander Center
11:10AM 47.2667 -59.9000 237° Southwest 460 529 43,100  Level Gander Center
11:11AM 47.1833 -60.0500 231° Southwest 460 529 43,100  Level Gander Center
11:12AM 47.1167 -60.2000 237° Southwest 460 529 43,100  Level Gander Center
11:13AM 47.0333 -60.3833 236° Southwest 460 529 43,100  Level Gander Center
11:14AM 46.9833 -60.5167 241° Southwest 460 529 43,100  Level Gander Center
11:15AM 46.9167 -60.6667 237° Southwest 460 529 43,100  Level Gander Center
11:16AM 46.8333 -60.8500 236° Southwest 460 529 43,100  Level Gander Center
11:17AM 46.7667 -60.9833 234° Southwest 460 529 43,100  Level Gander Center
11:18AM 46.6833 -61.1333 231° Southwest 460 529 43,100  Level Gander Center
11:19AM 46.6167 -61.2833 237° Southwest 460 529 43,100  Level Gander Center
11:20AM 46.5333 -61.4500 234° Southwest 460 529 43,100  Level Gander Center
11:21AM 46.4667 -61.6000 237° Southwest 460 529 43,100  Level Gander Center
11:22AM 46.4000 -61.7500 237° Southwest 450 518 43,100  Level Gander Center
11:23AM 46.3167 -61.8833 228° Southwest 450 518 43,100  Level Gander Center
11:24AM 46.2333 -62.0333 231° Southwest 450 518 43,100  Level Gander Center
11:25AM 46.1667 -62.1667 234° Southwest 450 518 43,100  Level Gander Center
11:26AM 46.0833 -62.3333 234° Southwest 450 518 43,100  Level Gander Center
11:27AM 46.0167 -62.4833 237° Southwest 450 518 43,100  Level Gander Center
11:28AM 45.9500 -62.6333 237° Southwest 450 518 43,100  Level Gander Center
11:29AM 45.8667 -62.7667 228° Southwest 450 518 43,100  Level Gander Center
11:30AM 45.8000 -62.9167 238° Southwest 450 518 43,100  Level Gander Center
11:31AM 45.7333 -63.0500 234° Southwest 450 518 43,100  Level Gander Center
11:32AM 45.6667 -63.1833 234° Southwest 450 518 43,100  Level Gander Center
11:33AM 45.5667 -63.3333 226° Southwest 440 506 43,100  Level Gander Center
11:34AM 45.5000 -63.4667 235° Southwest 450 518 43,100  Level Gander Center
11:35AM 45.4333 -63.6333 240° Southwest 440 506 43,100  Level Gander Center
11:36AM 45.3667 -63.7500 231° Southwest 440 506 43,100  Level Gander Center
11:37AM 45.2833 -63.8833 228° Southwest 450 518 43,100  Level Gander Center
11:38AM 45.2000 -64.0500 235° Southwest 440 506 43,100  Level Gander Center
11:39AM 45.1333 -64.1833 235° Southwest 440 506 43,100  Level Gander Center
11:40AM 45.0667 -64.3333 238° Southwest 440 506 43,100  Level Gander Center
11:41AM 44.9833 -64.4667 229° Southwest 440 506 43,100  Level Gander Center
11:42AM 44.9167 -64.6000 235° Southwest 450 518 43,100  Level Gander Center
11:43AM 44.8333 -64.7333 229° Southwest 450 518 43,100  Level Gander Center
11:44AM 44.7667 -64.8667 235° Southwest 450 518 43,100  Level Gander Center
11:45AM 44.6833 -65.0167 232° Southwest 450 518 43,100  Level Gander Center
11:46AM 44.6000 -65.1500 229° Southwest 450 518 43,100  Level Gander Center
11:47AM 44.5333 -65.2833 235° Southwest 440 506 43,100  Level Gander Center
11:48AM 44.4667 -65.3833 227° Southwest 440 506 43,100  Level Gander Center
11:49AM 44.4333 -65.4667 241° Southwest 440 506 43,100  Level Moncton Center
11:50AM 44.3667 -65.5833 231° Southwest 440 506 43,100  Level Moncton Center
11:51AM 44.2833 -65.7333 232° Southwest 440 506 43,100  Level Moncton Center
11:52AM 44.2167 -65.8667 235° Southwest 440 506 43,100  Level Moncton Center
11:53AM 44.1333 -66.0000 229° Southwest 440 506 43,100  Level Moncton Center
11:54AM 44.0500 -66.1333 229° Southwest 440 506 43,100  Level Moncton Center
11:55AM 43.9667 -66.2833 232° Southwest 440 506 43,100  Level Moncton Center
11:56AM 43.9000 -66.4167 235° Southwest 450 518 43,100  Level Moncton Center
11:57AM 43.8167 -66.5333 225° Southwest 440 506 43,100  Level Moncton Center
11:58AM 43.7500 -66.6833 238° Southwest 440 506 43,100  Level Moncton Center
11:59AM 43.6667 -66.8000 225° Southwest 440 506 43,100  Level Moncton Center
12:00PM 43.5667 -66.9333 224° Southwest 440 506 43,100  Level Moncton Center
12:01PM 43.5167 -67.1000 248° West 440 506 43,100  Level Moncton Center
12:02PM 43.4969 -67.2325 258° West 450 518 43,100  Level Boston Center
12:03PM 43.4539 -67.3908 250° West 444 511 43,100  Level Boston Center
12:04PM 43.4106 -67.5461 249° West 444 511 43,100  Level Boston Center
12:05PM 43.3650 -67.7011 248° West 444 511 43,100 -60 Level Boston Center
12:06PM 43.3214 -67.8558 249° West 444 511 43,000 -60 Descending Boston Center
12:07PM 43.2756 -68.0164 249° West 444 511 43,000  Level Boston Center
12:08PM 43.2292 -68.1708 248° West 444 511 43,100  Climbing Boston Center
12:09PM 43.1847 -68.3247 248° West 444 511 43,100  Level Boston Center
12:10PM 43.1403 -68.4758 248° West 444 511 43,100  Level Boston Center
12:11PM 43.0833 -68.6333 244° Southwest 440 506 43,100  Level Moncton Center
12:12PM 43.0833 -68.8167 270° West 440 506 43,100  Level Moncton Center
12:13PM 43.0833 -68.9667 270° West 440 506 43,100  Level Moncton Center
12:14PM 43.0833 -69.1333 270° West 440 506 43,100 -60 Level Moncton Center
12:15PM 43.0833 -69.3167 270° West 450 518 43,000  Descending Moncton Center
12:16PM 43.1000 -69.4833 278° West 440 506 43,100  Climbing Moncton Center
12:17PM 43.1167 -69.6333 279° West 440 506 43,100  Level Moncton Center
12:18PM 43.1167 -69.8167 270° West 440 506 43,100  Level Moncton Center
12:19PM 43.1167 -69.9833 270° West 440 506 43,100 -60 Level Moncton Center
12:20PM 43.1167 -70.1500 270° West 440 506 43,000  Descending Moncton Center
12:21PM 43.1167 -70.3000 270° West 440 506 43,100  Climbing Moncton Center
12:22PM 43.1333 -70.4833 277° West 450 518 43,100  Level Moncton Center
12:23PM 43.1333 -70.6667 270° West 440 506 43,100  Level Moncton Center
12:24PM 43.1500 -70.8333 278° West 450 518 43,100  Level Moncton Center
12:25PM 43.1500 -71.0000 270° West 440 506 43,100  Level Moncton Center
12:26PM 43.1500 -71.1500 270° West 450 518 43,100  Level Moncton Center
12:27PM 43.1500 -71.3167 270° West 440 506 43,100  Level Moncton Center
12:28PM 43.1500 -71.5000 270° West 430 495 43,100  Level Moncton Center
12:29PM 43.1667 -71.6667 278° West 430 495 43,100  Level Moncton Center
12:30PM 43.1667 -71.8500 270° West 430 495 43,100  Level Moncton Center
12:31PM 43.1667 -72.0000 270° West 440 506 43,100  Level Moncton Center
12:32PM 43.1667 -72.1667 270° West 430 495 43,100  Level Moncton Center
12:33PM 43.1667 -72.3500 270° West 430 495 43,100  Level Moncton Center
12:34PM 43.1667 -72.4833 270° West 430 495 43,100  Level Moncton Center
12:35PM 43.1667 -72.6667 270° West 430 495 43,100  Level Moncton Center
12:36PM 43.1833 -72.8333 278° West 440 506 43,100  Level Moncton Center
12:37PM 43.1833 -73.0000 270° West 440 506 43,100  Level Moncton Center
12:39PM 43.1667 -73.3167 266° West 440 506 43,100  Level Moncton Center
12:40PM 43.1667 -73.5000 270° West 420 483 43,100  Level Moncton Center
12:41PM 43.1833 -73.6667 278° West 430 495 43,100  Level Moncton Center
12:43PM 43.1766 -74.0040 269° West  Level FlightAware Approximate
12:50PM 43.1627 -75.2150 270° West  Level FlightAware Approximate
12:51PM 43.1610 -75.3880 269° West  Level FlightAware Approximate
12:52PM 43.1592 -75.5610 269° West  Level FlightAware Approximate
12:53PM 43.1570 -75.7340 269° West  Level FlightAware Approximate
12:54PM 43.1547 -75.9070 269° West  Level FlightAware Approximate
12:55PM 43.1520 -76.0799 269° West  Level FlightAware Approximate
12:56PM 43.1170 -76.2273 211° Southwest  Level FlightAware Approximate
12:57PM 43.0089 -76.3166 211° Southwest  Level FlightAware Approximate
12:58PM 42.9007 -76.4054 211° Southwest  Level FlightAware Approximate
12:59PM 42.7932 -76.4956 212° Southwest  Level FlightAware Approximate
01:00PM 42.6860 -76.5863 212° Southwest  Level FlightAware Approximate
01:01PM 42.5781 -76.6752 211° Southwest  Level FlightAware Approximate
01:02PM 42.4697 -76.7630 211° Southwest  Level FlightAware Approximate
01:03PM 42.3613 -76.8505 211° Southwest  Level FlightAware Approximate
01:04PM 42.2528 -76.9377 211° Southwest  Level FlightAware Approximate
01:05PM 42.1431 -77.0219 209° Southwest  Level FlightAware Approximate
01:06PM 42.0337 -77.1066 211° Southwest  Level FlightAware Approximate
01:07PM 41.9252 -77.1934 211° Southwest  Level FlightAware Approximate
01:08PM 41.8168 -77.2802 211° Southwest  Level FlightAware Approximate
01:09PM 41.7089 -77.3680 211° Southwest  Level FlightAware Approximate
01:10PM 41.6010 -77.4556 211° Southwest  Level FlightAware Approximate
01:11PM 41.4916 -77.5397 209° Southwest  Level FlightAware Approximate
01:12PM 41.3816 -77.6222 209° Southwest  Level FlightAware Approximate
01:13PM 41.2721 -77.7057 210° Southwest  Level FlightAware Approximate
01:14PM 41.1626 -77.7892 210° Southwest  Level FlightAware Approximate
01:15PM 41.0531 -77.8724 210° Southwest  Level FlightAware Approximate
01:16PM 40.9425 -77.9530 208° Southwest  Level FlightAware Approximate
01:17PM 40.8434 -77.9139 148° Southeast  Level FlightAware Approximate
01:18PM 40.7397 -77.8196 139° Southeast  Level FlightAware Approximate
01:19PM 40.6436 -77.7116 140° Southeast  Level FlightAware Approximate
01:20PM 40.5477 -77.6036 139° Southeast  Level FlightAware Approximate
01:21PM 40.4495 -77.4995 143° Southeast  Level FlightAware Approximate
01:22PM 40.3522 -77.3940 139° Southeast  Level FlightAware Approximate
01:23PM 40.2957 -77.2730 70° East  Level FlightAware Approximate
01:24PM 40.3396 -77.1178 70° East  Level FlightAware Approximate
01:25PM 40.3833 -76.9624 70° East  Level FlightAware Approximate
01:26PM 40.4268 -76.8068 70° East  Level FlightAware Approximate
01:27PM 40.4689 -76.6504 71° East  Level FlightAware Approximate
01:28PM 40.5108 -76.4939 70° East  Level FlightAware Approximate
01:29PM 40.5532 -76.3375 70° East  Level FlightAware Approximate
01:30PM 40.5955 -76.1809 70° East  Level FlightAware Approximate
01:31PM 40.6375 -76.0242 70° East  Level FlightAware Approximate
01:32PM 40.6794 -75.8672 71° East  Level FlightAware Approximate
01:33PM 40.7210 -75.7101 71° East  Level FlightAware Approximate
01:34PM 40.7620 -75.5525 72° East  Level FlightAware Approximate
01:35PM 40.8017 -75.3943 72° East  Level FlightAware Approximate
01:36PM 40.8412 -75.2359 72° East  Level FlightAware Approximate
01:37PM 40.8807 -75.0774 72° East  Level FlightAware Approximate
01:38PM 40.9116 -74.9470 244° Southwest  Level FlightAware Approximate
01:39PM 40.8556 -75.0966 244° Southwest  Level FlightAware Approximate
01:40PM 40.7994 -75.2460 244° Southwest  Level FlightAware Approximate
01:41PM 40.7430 -75.3951 244° Southwest  Level FlightAware Approximate
01:42PM 40.6865 -75.5439 243° Southwest  Level FlightAware Approximate
01:43PM 40.6297 -75.6925 243° Southwest  Level FlightAware Approximate
01:44PM 40.5728 -75.8409 243° Southwest  Level FlightAware Approximate
01:45PM 40.5083 -75.9834 237° Southwest  Level FlightAware Approximate
01:46PM 40.4486 -76.1291 245° Southwest  Level FlightAware Approximate
01:47PM 40.3918 -76.2772 242° Southwest  Level FlightAware Approximate
01:48PM 40.3319 -76.4229 242° Southwest  Level FlightAware Approximate
01:49PM 40.2725 -76.5690 242° Southwest  Level FlightAware Approximate
01:50PM 40.2140 -76.7154 242° Southwest  Level FlightAware Approximate
01:51PM 40.1550 -76.8615 241° Southwest  Level FlightAware Approximate
01:52PM 40.0946 -77.0064 241° Southwest  Level FlightAware Approximate
01:53PM 40.0197 -77.1151 201° Southwest  Level FlightAware Approximate
01:54PM 39.8966 -77.1511 194° South  Level FlightAware Approximate
01:55PM 39.7738 -77.1865 194° South  Level FlightAware Approximate
01:56PM 39.6655 -77.2524 237° Southwest  Level FlightAware Approximate
01:57PM 39.5714 -77.3393 201° Southwest  Level FlightAware Approximate
01:58PM 39.4473 -77.3605 189° South  Level FlightAware Approximate
01:59PM 39.3226 -77.3855 189° South  Level FlightAware Approximate
02:00PM 39.1979 -77.4104 189° South  Level FlightAware Approximate
02:01PM 39.0735 -77.4311 195° South  Level FlightAware Approximate
02:02PM 38.9488 -77.4512 218° Southwest  Level FlightAware Approximate
02:03PM 38.8312 -77.4833 180° South  Level FlightAware Approximate
02:04PM 38.7179 -77.5000 180° South  Level FlightAware Approximate
02:05PM 38.7167 -77.5000 180° South  Level FlightAware Approximate
02:06PM 38.7210 -77.5151 180° South  Level Estimated
02:07PM 38.7210 -77.5151 180° South  Level Estimated
02:08PM 38.7210 -77.5151 180° South  Level Estimated
02:09PM 38.7210 -77.5151 180° South  Level Estimated
02:10PM 38.7210 -77.5151 180° South  Level Estimated
02:11PM 38.7210 -77.5151 180° South  Level Estimated
02:12PM 38.7210 -77.5151 180° South  Level Estimated
02:13PM 38.7210 -77.5151 180° South  Level Estimated
02:14PM 38.7210 -77.5151 180° South  Level Estimated
02:15PM 38.7210 -77.5151 180° South  Level Estimated
02:16PM 38.7210 -77.5151 180° South  Level Estimated
02:17PM 38.7210 -77.5151 180° South  Level Estimated
02:18PM 38.7210 -77.5151 180° South  Level Estimated
02:19PM 38.7210 -77.5151 180° South  Level Estimated
02:20PM 38.7210 -77.5151 180° South  Level Estimated
02:21PM 38.7210 -77.5151 180° South  Level Estimated
02:22PM 38.7210 -77.5151 180° South  Level Estimated
02:23PM 38.7210 -77.5151 180° South  Level Estimated
02:24PM 38.7210 -77.5151 180° South  Level Estimated
02:25PM 38.7210 -77.5151 180° South  Level Estimated
02:26PM 38.7210 -77.5151 180° South  Level Estimated
02:27PM 38.7210 -77.5151 180° South  Level Estimated
02:28PM 38.7210 -77.5151 180° South  Level Estimated
02:29PM 38.7210 -77.5151 180° South  Level Estimated